sensor_id;sensor_type;location;lat;lon;timestamp;P1;durP1;ratioP1;P2;durP2;ratioP2
40591;SDS011;26301;42.832;23.918;2023-07-31T00:01:21;11.10;;;10.00;;
40591;SDS011;26301;42.832;23.918;2023-07-31T00:03:47;8.65;;;7.75;;
40591;SDS011;26301;42.832;23.918;2023-07-31T00:06:13;7.85;;;7.05;;
40591;SDS011;26301;42.832;23.918;2023-07-31T00:08:39;8.52;;;7.10;;
40591;SDS011;26301;42.832;23.918;2023-07-31T00:11:06;7.47;;;6.57;;
40591;SDS011;26301;42.832;23.918;2023-07-31T00:13:32;7.20;;;6.50;;
40591;SDS011;26301;42.832;23.918;2023-07-31T00:15:58;6.90;;;6.30;;
40591;SDS011;26301;42.832;23.918;2023-07-31T00:18:25;7.95;;;6.00;;
40591;SDS011;26301;42.832;23.918;2023-07-31T00:20:50;9.90;;;6.57;;
40591;SDS011;26301;42.832;23.918;2023-07-31T00:23:18;6.80;;;6.20;;
40591;SDS011;26301;42.832;23.918;2023-07-31T00:25:44;7.40;;;6.28;;
40591;SDS011;26301;42.832;23.918;2023-07-31T00:28:10;7.63;;;6.85;;
40591;SDS011;26301;42.832;23.918;2023-07-31T00:30:36;8.30;;;7.32;;
40591;SDS011;26301;42.832;23.918;2023-07-31T00:33:03;8.57;;;7.78;;
40591;SDS011;26301;42.832;23.918;2023-07-31T00:35:29;10.20;;;7.85;;
40591;SDS011;26301;42.832;23.918;2023-07-31T00:37:56;7.85;;;7.07;;
40591;SDS011;26301;42.832;23.918;2023-07-31T00:40:23;7.50;;;6.80;;
40591;SDS011;26301;42.832;23.918;2023-07-31T00:42:49;8.18;;;7.47;;
40591;SDS011;26301;42.832;23.918;2023-07-31T00:45:15;7.80;;;7.10;;
40591;SDS011;26301;42.832;23.918;2023-07-31T00:47:41;7.68;;;6.95;;
40591;SDS011;26301;42.832;23.918;2023-07-31T00:50:08;8.57;;;7.68;;
40591;SDS011;26301;42.832;23.918;2023-07-31T00:52:35;7.30;;;6.57;;
40591;SDS011;26301;42.832;23.918;2023-07-31T00:55:02;8.35;;;7.28;;
40591;SDS011;26301;42.832;23.918;2023-07-31T00:57:28;8.02;;;7.32;;
40591;SDS011;26301;42.832;23.918;2023-07-31T00:59:55;7.93;;;7.13;;
40591;SDS011;26301;42.832;23.918;2023-07-31T01:02:21;7.57;;;6.88;;
40591;SDS011;26301;42.832;23.918;2023-07-31T01:04:48;7.95;;;7.15;;
40591;SDS011;26301;42.832;23.918;2023-07-31T01:07:39;7.90;;;7.13;;
40591;SDS011;26301;42.832;23.918;2023-07-31T01:10:23;8.07;;;7.28;;
40591;SDS011;26301;42.832;23.918;2023-07-31T01:12:52;8.55;;;7.78;;
40591;SDS011;26301;42.832;23.918;2023-07-31T01:15:20;7.15;;;6.43;;
40591;SDS011;26301;42.832;23.918;2023-07-31T01:17:47;7.53;;;6.82;;
40591;SDS011;26301;42.832;23.918;2023-07-31T01:20:31;7.43;;;6.60;;
40591;SDS011;26301;42.832;23.918;2023-07-31T01:28:04;7.82;;;6.55;;
40591;SDS011;26301;42.832;23.918;2023-07-31T01:30:33;8.43;;;7.45;;
40591;SDS011;26301;42.832;23.918;2023-07-31T01:33:04;8.85;;;8.05;;
40591;SDS011;26301;42.832;23.918;2023-07-31T01:35:36;8.25;;;7.55;;
40591;SDS011;26301;42.832;23.918;2023-07-31T01:38:03;8.15;;;7.35;;
40591;SDS011;26301;42.832;23.918;2023-07-31T01:40:30;8.75;;;6.85;;
40591;SDS011;26301;42.832;23.918;2023-07-31T01:42:56;8.60;;;7.80;;
40591;SDS011;26301;42.832;23.918;2023-07-31T01:45:23;8.48;;;7.47;;
40591;SDS011;26301;42.832;23.918;2023-07-31T01:47:49;10.18;;;7.47;;
40591;SDS011;26301;42.832;23.918;2023-07-31T01:50:15;8.65;;;7.75;;
40591;SDS011;26301;42.832;23.918;2023-07-31T01:52:41;8.95;;;8.15;;
40591;SDS011;26301;42.832;23.918;2023-07-31T01:55:08;8.93;;;8.02;;
40591;SDS011;26301;42.832;23.918;2023-07-31T01:57:36;8.75;;;7.95;;
40591;SDS011;26301;42.832;23.918;2023-07-31T02:00:03;8.88;;;8.07;;
40591;SDS011;26301;42.832;23.918;2023-07-31T02:02:30;9.23;;;8.07;;
40591;SDS011;26301;42.832;23.918;2023-07-31T02:04:56;9.65;;;8.85;;
40591;SDS011;26301;42.832;23.918;2023-07-31T02:07:22;9.85;;;8.98;;
40591;SDS011;26301;42.832;23.918;2023-07-31T02:09:48;9.93;;;9.00;;
40591;SDS011;26301;42.832;23.918;2023-07-31T02:12:15;9.82;;;8.93;;
40591;SDS011;26301;42.832;23.918;2023-07-31T02:14:42;9.90;;;8.98;;
40591;SDS011;26301;42.832;23.918;2023-07-31T02:17:08;10.20;;;9.30;;
40591;SDS011;26301;42.832;23.918;2023-07-31T02:19:34;9.70;;;8.80;;
40591;SDS011;26301;42.832;23.918;2023-07-31T02:22:00;9.77;;;8.93;;
40591;SDS011;26301;42.832;23.918;2023-07-31T02:24:27;10.02;;;9.13;;
40591;SDS011;26301;42.832;23.918;2023-07-31T02:26:53;10.25;;;9.25;;
40591;SDS011;26301;42.832;23.918;2023-07-31T02:29:20;10.45;;;9.45;;
40591;SDS011;26301;42.832;23.918;2023-07-31T02:31:46;9.25;;;8.45;;
40591;SDS011;26301;42.832;23.918;2023-07-31T02:34:13;9.05;;;8.30;;
40591;SDS011;26301;42.832;23.918;2023-07-31T02:36:39;10.25;;;9.25;;
40591;SDS011;26301;42.832;23.918;2023-07-31T02:39:05;10.20;;;9.30;;
40591;SDS011;26301;42.832;23.918;2023-07-31T02:41:31;10.68;;;9.68;;
40591;SDS011;26301;42.832;23.918;2023-07-31T02:43:57;11.55;;;10.45;;
40591;SDS011;26301;42.832;23.918;2023-07-31T02:46:25;10.55;;;9.65;;
40591;SDS011;26301;42.832;23.918;2023-07-31T02:48:51;10.20;;;9.30;;
40591;SDS011;26301;42.832;23.918;2023-07-31T02:51:17;10.13;;;9.23;;
40591;SDS011;26301;42.832;23.918;2023-07-31T02:53:43;10.40;;;9.50;;
40591;SDS011;26301;42.832;23.918;2023-07-31T02:56:09;10.30;;;9.30;;
40591;SDS011;26301;42.832;23.918;2023-07-31T02:58:35;10.75;;;9.85;;
40591;SDS011;26301;42.832;23.918;2023-07-31T03:01:01;10.82;;;9.73;;
40591;SDS011;26301;42.832;23.918;2023-07-31T03:03:27;10.45;;;9.52;;
40591;SDS011;26301;42.832;23.918;2023-07-31T03:05:53;10.32;;;9.40;;
40591;SDS011;26301;42.832;23.918;2023-07-31T03:08:19;11.60;;;10.32;;
40591;SDS011;26301;42.832;23.918;2023-07-31T03:10:46;10.82;;;9.73;;
40591;SDS011;26301;42.832;23.918;2023-07-31T03:13:12;11.20;;;10.10;;
40591;SDS011;26301;42.832;23.918;2023-07-31T03:15:41;10.52;;;9.52;;
40591;SDS011;26301;42.832;23.918;2023-07-31T03:18:08;11.05;;;10.05;;
40591;SDS011;26301;42.832;23.918;2023-07-31T03:20:34;11.02;;;10.05;;
40591;SDS011;26301;42.832;23.918;2023-07-31T03:23:01;10.02;;;9.23;;
40591;SDS011;26301;42.832;23.918;2023-07-31T03:25:27;9.82;;;9.02;;
40591;SDS011;26301;42.832;23.918;2023-07-31T03:27:54;10.52;;;9.43;;
40591;SDS011;26301;42.832;23.918;2023-07-31T03:30:20;10.25;;;9.18;;
40591;SDS011;26301;42.832;23.918;2023-07-31T03:32:46;10.98;;;10.05;;
40591;SDS011;26301;42.832;23.918;2023-07-31T03:35:12;10.35;;;9.45;;
40591;SDS011;26301;42.832;23.918;2023-07-31T03:37:39;11.45;;;10.45;;
40591;SDS011;26301;42.832;23.918;2023-07-31T03:40:05;9.95;;;9.05;;
40591;SDS011;26301;42.832;23.918;2023-07-31T03:42:32;10.25;;;9.35;;
40591;SDS011;26301;42.832;23.918;2023-07-31T03:44:58;10.85;;;9.82;;
40591;SDS011;26301;42.832;23.918;2023-07-31T03:47:24;10.48;;;9.48;;
40591;SDS011;26301;42.832;23.918;2023-07-31T03:49:51;11.23;;;10.25;;
40591;SDS011;26301;42.832;23.918;2023-07-31T03:52:16;11.25;;;9.98;;
40591;SDS011;26301;42.832;23.918;2023-07-31T03:54:43;11.82;;;10.52;;
40591;SDS011;26301;42.832;23.918;2023-07-31T03:57:10;12.27;;;10.98;;
40591;SDS011;26301;42.832;23.918;2023-07-31T03:59:36;11.13;;;10.13;;
40591;SDS011;26301;42.832;23.918;2023-07-31T04:02:06;11.15;;;10.18;;
40591;SDS011;26301;42.832;23.918;2023-07-31T04:04:32;12.18;;;10.95;;
40591;SDS011;26301;42.832;23.918;2023-07-31T04:06:58;12.27;;;11.07;;
40591;SDS011;26301;42.832;23.918;2023-07-31T04:09:24;12.77;;;10.75;;
40591;SDS011;26301;42.832;23.918;2023-07-31T04:11:51;13.18;;;11.77;;
40591;SDS011;26301;42.832;23.918;2023-07-31T04:14:17;13.45;;;12.15;;
40591;SDS011;26301;42.832;23.918;2023-07-31T04:16:44;11.68;;;10.63;;
40591;SDS011;26301;42.832;23.918;2023-07-31T04:19:10;12.48;;;11.35;;
40591;SDS011;26301;42.832;23.918;2023-07-31T04:21:41;12.65;;;11.35;;
40591;SDS011;26301;42.832;23.918;2023-07-31T04:24:07;13.20;;;11.88;;
40591;SDS011;26301;42.832;23.918;2023-07-31T04:26:34;11.50;;;10.60;;
40591;SDS011;26301;42.832;23.918;2023-07-31T04:29:00;13.52;;;12.20;;
40591;SDS011;26301;42.832;23.918;2023-07-31T04:31:26;14.80;;;13.48;;
40591;SDS011;26301;42.832;23.918;2023-07-31T04:33:52;13.05;;;11.82;;
40591;SDS011;26301;42.832;23.918;2023-07-31T04:36:19;12.98;;;11.68;;
40591;SDS011;26301;42.832;23.918;2023-07-31T04:38:45;13.10;;;11.90;;
40591;SDS011;26301;42.832;23.918;2023-07-31T04:41:11;13.82;;;12.52;;
40591;SDS011;26301;42.832;23.918;2023-07-31T04:43:38;13.23;;;12.02;;
40591;SDS011;26301;42.832;23.918;2023-07-31T04:46:05;13.52;;;12.32;;
40591;SDS011;26301;42.832;23.918;2023-07-31T04:48:31;14.93;;;13.60;;
40591;SDS011;26301;42.832;23.918;2023-07-31T04:50:57;14.13;;;12.75;;
40591;SDS011;26301;42.832;23.918;2023-07-31T04:53:23;14.30;;;13.00;;
40591;SDS011;26301;42.832;23.918;2023-07-31T04:55:50;14.15;;;12.70;;
40591;SDS011;26301;42.832;23.918;2023-07-31T04:58:16;14.25;;;12.88;;
40591;SDS011;26301;42.832;23.918;2023-07-31T05:00:42;16.25;;;13.23;;
40591;SDS011;26301;42.832;23.918;2023-07-31T05:03:08;16.08;;;14.57;;
40591;SDS011;26301;42.832;23.918;2023-07-31T05:05:36;14.88;;;13.43;;
40591;SDS011;26301;42.832;23.918;2023-07-31T05:08:02;14.93;;;13.52;;
40591;SDS011;26301;42.832;23.918;2023-07-31T05:10:28;14.32;;;13.00;;
40591;SDS011;26301;42.832;23.918;2023-07-31T05:12:55;14.85;;;13.43;;
40591;SDS011;26301;42.832;23.918;2023-07-31T05:15:21;15.13;;;13.63;;
40591;SDS011;26301;42.832;23.918;2023-07-31T05:17:47;14.82;;;13.32;;
40591;SDS011;26301;42.832;23.918;2023-07-31T05:20:14;13.20;;;11.85;;
40591;SDS011;26301;42.832;23.918;2023-07-31T05:22:40;14.32;;;13.02;;
40591;SDS011;26301;42.832;23.918;2023-07-31T05:25:09;13.10;;;11.88;;
40591;SDS011;26301;42.832;23.918;2023-07-31T05:27:35;12.20;;;10.98;;
40591;SDS011;26301;42.832;23.918;2023-07-31T05:30:01;13.20;;;12.00;;
40591;SDS011;26301;42.832;23.918;2023-07-31T05:32:28;12.77;;;11.50;;
40591;SDS011;26301;42.832;23.918;2023-07-31T05:34:54;12.05;;;10.88;;
40591;SDS011;26301;42.832;23.918;2023-07-31T05:37:23;11.18;;;10.25;;
40591;SDS011;26301;42.832;23.918;2023-07-31T05:39:49;11.52;;;10.20;;
40591;SDS011;26301;42.832;23.918;2023-07-31T05:42:17;12.38;;;10.93;;
40591;SDS011;26301;42.832;23.918;2023-07-31T05:44:43;11.32;;;10.32;;
40591;SDS011;26301;42.832;23.918;2023-07-31T05:47:09;12.93;;;11.63;;
40591;SDS011;26301;42.832;23.918;2023-07-31T05:49:36;11.90;;;10.80;;
40591;SDS011;26301;42.832;23.918;2023-07-31T05:52:02;10.70;;;9.80;;
40591;SDS011;26301;42.832;23.918;2023-07-31T05:54:28;11.10;;;10.10;;
40591;SDS011;26301;42.832;23.918;2023-07-31T05:56:55;10.15;;;9.25;;
40591;SDS011;26301;42.832;23.918;2023-07-31T05:59:21;10.63;;;9.65;;
40591;SDS011;26301;42.832;23.918;2023-07-31T06:01:48;9.75;;;8.82;;
40591;SDS011;26301;42.832;23.918;2023-07-31T06:04:14;9.68;;;8.68;;
40591;SDS011;26301;42.832;23.918;2023-07-31T06:06:40;9.57;;;8.68;;
40591;SDS011;26301;42.832;23.918;2023-07-31T06:09:06;9.27;;;8.38;;
40591;SDS011;26301;42.832;23.918;2023-07-31T06:11:32;8.82;;;7.93;;
40591;SDS011;26301;42.832;23.918;2023-07-31T06:13:59;8.68;;;7.88;;
40591;SDS011;26301;42.832;23.918;2023-07-31T06:16:25;8.25;;;7.47;;
40591;SDS011;26301;42.832;23.918;2023-07-31T06:18:52;9.05;;;8.15;;
40591;SDS011;26301;42.832;23.918;2023-07-31T06:21:18;10.52;;;8.05;;
40591;SDS011;26301;42.832;23.918;2023-07-31T06:23:44;9.25;;;8.45;;
40591;SDS011;26301;42.832;23.918;2023-07-31T06:26:10;9.15;;;8.25;;
40591;SDS011;26301;42.832;23.918;2023-07-31T06:28:37;9.18;;;8.27;;
40591;SDS011;26301;42.832;23.918;2023-07-31T06:31:03;9.40;;;8.50;;
40591;SDS011;26301;42.832;23.918;2023-07-31T06:33:30;8.88;;;8.07;;
40591;SDS011;26301;42.832;23.918;2023-07-31T06:35:56;10.88;;;8.13;;
40591;SDS011;26301;42.832;23.918;2023-07-31T06:38:24;10.18;;;8.68;;
40591;SDS011;26301;42.832;23.918;2023-07-31T06:40:51;9.07;;;8.18;;
40591;SDS011;26301;42.832;23.918;2023-07-31T06:43:17;9.05;;;7.78;;
40591;SDS011;26301;42.832;23.918;2023-07-31T06:45:43;9.55;;;8.65;;
40591;SDS011;26301;42.832;23.918;2023-07-31T06:48:10;8.10;;;7.30;;
40591;SDS011;26301;42.832;23.918;2023-07-31T06:50:37;9.27;;;8.32;;
40591;SDS011;26301;42.832;23.918;2023-07-31T06:53:03;10.95;;;9.02;;
40591;SDS011;26301;42.832;23.918;2023-07-31T06:55:30;10.85;;;9.23;;
40591;SDS011;26301;42.832;23.918;2023-07-31T06:57:56;7.88;;;6.43;;
40591;SDS011;26301;42.832;23.918;2023-07-31T07:00:23;5.97;;;5.18;;
40591;SDS011;26301;42.832;23.918;2023-07-31T07:02:49;7.60;;;6.20;;
40591;SDS011;26301;42.832;23.918;2023-07-31T07:05:16;8.18;;;6.10;;
40591;SDS011;26301;42.832;23.918;2023-07-31T07:07:42;6.35;;;5.63;;
40591;SDS011;26301;42.832;23.918;2023-07-31T07:10:09;6.45;;;5.50;;
40591;SDS011;26301;42.832;23.918;2023-07-31T07:12:35;6.10;;;5.22;;
40591;SDS011;26301;42.832;23.918;2023-07-31T07:15:02;6.18;;;4.68;;
40591;SDS011;26301;42.832;23.918;2023-07-31T07:17:29;6.03;;;4.50;;
40591;SDS011;26301;42.832;23.918;2023-07-31T07:19:58;7.50;;;4.70;;
40591;SDS011;26301;42.832;23.918;2023-07-31T07:22:25;6.13;;;4.90;;
40591;SDS011;26301;42.832;23.918;2023-07-31T07:24:51;5.80;;;4.60;;
40591;SDS011;26301;42.832;23.918;2023-07-31T07:27:18;8.13;;;4.25;;
40591;SDS011;26301;42.832;23.918;2023-07-31T07:29:45;5.07;;;4.57;;
40591;SDS011;26301;42.832;23.918;2023-07-31T07:32:12;4.40;;;4.00;;
40591;SDS011;26301;42.832;23.918;2023-07-31T07:34:38;5.75;;;3.60;;
40591;SDS011;26301;42.832;23.918;2023-07-31T07:37:05;6.45;;;3.65;;
40591;SDS011;26301;42.832;23.918;2023-07-31T07:39:32;5.43;;;3.60;;
40591;SDS011;26301;42.832;23.918;2023-07-31T07:41:58;4.30;;;3.63;;
40591;SDS011;26301;42.832;23.918;2023-07-31T07:44:24;5.72;;;3.80;;
40591;SDS011;26301;42.832;23.918;2023-07-31T07:46:51;6.20;;;3.60;;
40591;SDS011;26301;42.832;23.918;2023-07-31T07:49:18;5.20;;;3.75;;
40591;SDS011;26301;42.832;23.918;2023-07-31T07:51:44;3.42;;;2.83;;
40591;SDS011;26301;42.832;23.918;2023-07-31T07:54:10;4.15;;;3.47;;
40591;SDS011;26301;42.832;23.918;2023-07-31T07:56:36;5.00;;;3.60;;
40591;SDS011;26301;42.832;23.918;2023-07-31T07:59:03;4.63;;;3.30;;
40591;SDS011;26301;42.832;23.918;2023-07-31T08:01:29;3.70;;;2.60;;
40591;SDS011;26301;42.832;23.918;2023-07-31T08:03:56;3.38;;;2.40;;
40591;SDS011;26301;42.832;23.918;2023-07-31T08:06:23;3.85;;;2.72;;
40591;SDS011;26301;42.832;23.918;2023-07-31T08:08:51;2.40;;;2.00;;
40591;SDS011;26301;42.832;23.918;2023-07-31T08:11:16;4.38;;;2.95;;
40591;SDS011;26301;42.832;23.918;2023-07-31T08:13:43;3.85;;;2.63;;
40591;SDS011;26301;42.832;23.918;2023-07-31T08:16:09;3.22;;;2.72;;
40591;SDS011;26301;42.832;23.918;2023-07-31T08:18:36;4.70;;;3.20;;
40591;SDS011;26301;42.832;23.918;2023-07-31T08:21:02;3.10;;;2.63;;
40591;SDS011;26301;42.832;23.918;2023-07-31T08:23:29;3.80;;;2.83;;
40591;SDS011;26301;42.832;23.918;2023-07-31T08:25:55;4.15;;;3.08;;
40591;SDS011;26301;42.832;23.918;2023-07-31T08:28:21;3.38;;;2.85;;
40591;SDS011;26301;42.832;23.918;2023-07-31T08:30:47;4.03;;;2.95;;
40591;SDS011;26301;42.832;23.918;2023-07-31T08:33:15;4.10;;;2.85;;
40591;SDS011;26301;42.832;23.918;2023-07-31T08:35:41;4.63;;;2.97;;
40591;SDS011;26301;42.832;23.918;2023-07-31T08:38:08;2.83;;;2.38;;
40591;SDS011;26301;42.832;23.918;2023-07-31T08:40:37;3.83;;;2.60;;
40591;SDS011;26301;42.832;23.918;2023-07-31T08:43:03;5.03;;;2.65;;
40591;SDS011;26301;42.832;23.918;2023-07-31T08:45:30;3.42;;;2.70;;
40591;SDS011;26301;42.832;23.918;2023-07-31T08:47:57;2.92;;;2.17;;
40591;SDS011;26301;42.832;23.918;2023-07-31T08:50:24;6.40;;;2.22;;
40591;SDS011;26301;42.832;23.918;2023-07-31T08:52:51;4.57;;;2.22;;
40591;SDS011;26301;42.832;23.918;2023-07-31T08:55:17;2.55;;;2.10;;
40591;SDS011;26301;42.832;23.918;2023-07-31T08:57:50;3.50;;;2.25;;
40591;SDS011;26301;42.832;23.918;2023-07-31T09:00:18;3.25;;;2.03;;
40591;SDS011;26301;42.832;23.918;2023-07-31T09:05:30;4.78;;;2.60;;
40591;SDS011;26301;42.832;23.918;2023-07-31T09:08:05;3.10;;;1.90;;
40591;SDS011;26301;42.832;23.918;2023-07-31T09:10:35;3.70;;;2.65;;
40591;SDS011;26301;42.832;23.918;2023-07-31T09:13:01;4.28;;;2.80;;
40591;SDS011;26301;42.832;23.918;2023-07-31T09:15:28;2.78;;;2.33;;
40591;SDS011;26301;42.832;23.918;2023-07-31T09:18:01;3.00;;;2.63;;
40591;SDS011;26301;42.832;23.918;2023-07-31T09:20:28;3.10;;;2.50;;
40591;SDS011;26301;42.832;23.918;2023-07-31T09:22:54;4.75;;;2.63;;
40591;SDS011;26301;42.832;23.918;2023-07-31T09:25:22;3.45;;;2.28;;
40591;SDS011;26301;42.832;23.918;2023-07-31T09:27:56;4.15;;;2.17;;
40591;SDS011;26301;42.832;23.918;2023-07-31T09:30:24;3.25;;;2.22;;
40591;SDS011;26301;42.832;23.918;2023-07-31T09:32:51;2.92;;;1.95;;
40591;SDS011;26301;42.832;23.918;2023-07-31T09:35:31;2.25;;;1.95;;
40591;SDS011;26301;42.832;23.918;2023-07-31T09:37:58;4.70;;;1.95;;
40591;SDS011;26301;42.832;23.918;2023-07-31T09:40:41;3.55;;;2.15;;
40591;SDS011;26301;42.832;23.918;2023-07-31T09:43:18;5.32;;;2.90;;
40591;SDS011;26301;42.832;23.918;2023-07-31T09:45:46;2.42;;;1.58;;
40591;SDS011;26301;42.832;23.918;2023-07-31T09:48:14;2.83;;;1.80;;
40591;SDS011;26301;42.832;23.918;2023-07-31T09:50:42;2.10;;;1.70;;
40591;SDS011;26301;42.832;23.918;2023-07-31T09:53:12;3.07;;;1.97;;
40591;SDS011;26301;42.832;23.918;2023-07-31T09:55:40;1.95;;;1.40;;
40591;SDS011;26301;42.832;23.918;2023-07-31T09:58:08;1.95;;;1.60;;
40591;SDS011;26301;42.832;23.918;2023-07-31T10:00:37;4.07;;;2.00;;
40591;SDS011;26301;42.832;23.918;2023-07-31T10:03:04;3.10;;;1.92;;
40591;SDS011;26301;42.832;23.918;2023-07-31T10:05:39;2.73;;;1.77;;
40591;SDS011;26301;42.832;23.918;2023-07-31T10:08:09;3.25;;;1.58;;
40591;SDS011;26301;42.832;23.918;2023-07-31T10:10:41;2.70;;;2.05;;
40591;SDS011;26301;42.832;23.918;2023-07-31T10:13:11;4.88;;;1.77;;
40591;SDS011;26301;42.832;23.918;2023-07-31T10:15:37;2.17;;;1.58;;
40591;SDS011;26301;42.832;23.918;2023-07-31T10:18:06;3.67;;;1.85;;
40591;SDS011;26301;42.832;23.918;2023-07-31T10:20:32;3.15;;;1.90;;
40591;SDS011;26301;42.832;23.918;2023-07-31T10:22:59;2.83;;;1.83;;
40591;SDS011;26301;42.832;23.918;2023-07-31T10:25:26;3.13;;;1.92;;
40591;SDS011;26301;42.832;23.918;2023-07-31T10:27:53;2.90;;;2.10;;
40591;SDS011;26301;42.832;23.918;2023-07-31T10:30:20;2.47;;;1.92;;
40591;SDS011;26301;42.832;23.918;2023-07-31T10:32:50;3.30;;;2.30;;
40591;SDS011;26301;42.832;23.918;2023-07-31T10:35:18;3.83;;;2.20;;
40591;SDS011;26301;42.832;23.918;2023-07-31T10:37:47;3.10;;;2.10;;
40591;SDS011;26301;42.832;23.918;2023-07-31T10:40:34;3.30;;;2.20;;
40591;SDS011;26301;42.832;23.918;2023-07-31T10:42:59;3.22;;;2.25;;
40591;SDS011;26301;42.832;23.918;2023-07-31T10:45:36;3.97;;;2.53;;
40591;SDS011;26301;42.832;23.918;2023-07-31T10:48:04;3.03;;;2.42;;
40591;SDS011;26301;42.832;23.918;2023-07-31T10:50:31;3.30;;;2.10;;
40591;SDS011;26301;42.832;23.918;2023-07-31T10:52:58;3.08;;;2.20;;
40591;SDS011;26301;42.832;23.918;2023-07-31T10:55:41;2.90;;;1.92;;
40591;SDS011;26301;42.832;23.918;2023-07-31T10:58:12;3.70;;;2.15;;
40591;SDS011;26301;42.832;23.918;2023-07-31T11:00:39;5.32;;;2.13;;
40591;SDS011;26301;42.832;23.918;2023-07-31T11:05:59;2.50;;;2.00;;
40591;SDS011;26301;42.832;23.918;2023-07-31T11:08:33;4.53;;;2.40;;
40591;SDS011;26301;42.832;23.918;2023-07-31T11:13:27;2.53;;;2.08;;
40591;SDS011;26301;42.832;23.918;2023-07-31T11:15:57;3.75;;;2.83;;
40591;SDS011;26301;42.832;23.918;2023-07-31T11:18:23;3.90;;;2.20;;
40591;SDS011;26301;42.832;23.918;2023-07-31T11:20:52;5.50;;;2.67;;
40591;SDS011;26301;42.832;23.918;2023-07-31T11:23:19;4.30;;;2.40;;
40591;SDS011;26301;42.832;23.918;2023-07-31T11:25:46;3.10;;;2.38;;
40591;SDS011;26301;42.832;23.918;2023-07-31T11:28:13;2.72;;;2.00;;
40591;SDS011;26301;42.832;23.918;2023-07-31T11:30:41;3.67;;;2.10;;
40591;SDS011;26301;42.832;23.918;2023-07-31T11:33:10;2.70;;;1.95;;
40591;SDS011;26301;42.832;23.918;2023-07-31T11:35:47;3.03;;;1.90;;
40591;SDS011;26301;42.832;23.918;2023-07-31T11:38:27;3.03;;;2.17;;
40591;SDS011;26301;42.832;23.918;2023-07-31T11:40:58;2.30;;;1.90;;
40591;SDS011;26301;42.832;23.918;2023-07-31T11:43:26;2.00;;;1.50;;
40591;SDS011;26301;42.832;23.918;2023-07-31T11:45:56;3.75;;;1.95;;
40591;SDS011;26301;42.832;23.918;2023-07-31T11:48:27;2.53;;;1.83;;
40591;SDS011;26301;42.832;23.918;2023-07-31T11:50:58;2.75;;;2.00;;
40591;SDS011;26301;42.832;23.918;2023-07-31T11:56:16;2.88;;;1.85;;
40591;SDS011;26301;42.832;23.918;2023-07-31T11:58:48;2.45;;;1.75;;
40591;SDS011;26301;42.832;23.918;2023-07-31T12:01:18;2.67;;;2.08;;
40591;SDS011;26301;42.832;23.918;2023-07-31T12:03:46;2.60;;;1.80;;
40591;SDS011;26301;42.832;23.918;2023-07-31T12:06:14;2.72;;;1.98;;
40591;SDS011;26301;42.832;23.918;2023-07-31T12:08:41;2.20;;;1.77;;
40591;SDS011;26301;42.832;23.918;2023-07-31T12:11:08;2.45;;;1.90;;
40591;SDS011;26301;42.832;23.918;2023-07-31T12:13:40;2.50;;;1.95;;
40591;SDS011;26301;42.832;23.918;2023-07-31T12:16:06;2.80;;;1.90;;
40591;SDS011;26301;42.832;23.918;2023-07-31T12:18:36;2.95;;;2.00;;
40591;SDS011;26301;42.832;23.918;2023-07-31T12:21:05;2.72;;;1.80;;
40591;SDS011;26301;42.832;23.918;2023-07-31T12:23:34;2.35;;;1.85;;
40591;SDS011;26301;42.832;23.918;2023-07-31T12:26:05;3.00;;;2.17;;
40591;SDS011;26301;42.832;23.918;2023-07-31T12:28:37;2.45;;;1.90;;
40591;SDS011;26301;42.832;23.918;2023-07-31T12:31:05;2.13;;;1.70;;
40591;SDS011;26301;42.832;23.918;2023-07-31T12:33:32;5.72;;;1.95;;
40591;SDS011;26301;42.832;23.918;2023-07-31T12:36:03;2.13;;;1.80;;
40591;SDS011;26301;42.832;23.918;2023-07-31T12:38:40;2.20;;;1.73;;
40591;SDS011;26301;42.832;23.918;2023-07-31T12:41:07;2.35;;;1.98;;
40591;SDS011;26301;42.832;23.918;2023-07-31T12:43:36;2.53;;;1.98;;
40591;SDS011;26301;42.832;23.918;2023-07-31T12:46:04;2.53;;;1.73;;
40591;SDS011;26301;42.832;23.918;2023-07-31T12:48:31;2.63;;;1.80;;
40591;SDS011;26301;42.832;23.918;2023-07-31T12:50:57;2.88;;;1.90;;
40591;SDS011;26301;42.832;23.918;2023-07-31T12:53:24;5.57;;;2.00;;
40591;SDS011;26301;42.832;23.918;2023-07-31T12:55:50;2.92;;;1.70;;
40591;SDS011;26301;42.832;23.918;2023-07-31T12:58:16;4.15;;;1.75;;
40591;SDS011;26301;42.832;23.918;2023-07-31T13:00:43;2.80;;;1.65;;
40591;SDS011;26301;42.832;23.918;2023-07-31T13:03:09;2.45;;;1.48;;
40591;SDS011;26301;42.832;23.918;2023-07-31T13:05:35;3.55;;;1.75;;
40591;SDS011;26301;42.832;23.918;2023-07-31T13:08:02;3.28;;;2.00;;
40591;SDS011;26301;42.832;23.918;2023-07-31T13:10:28;2.95;;;1.50;;
40591;SDS011;26301;42.832;23.918;2023-07-31T13:12:55;4.30;;;1.60;;
40591;SDS011;26301;42.832;23.918;2023-07-31T13:15:22;1.58;;;1.40;;
40591;SDS011;26301;42.832;23.918;2023-07-31T13:17:48;2.28;;;1.75;;
40591;SDS011;26301;42.832;23.918;2023-07-31T13:20:14;2.08;;;1.50;;
40591;SDS011;26301;42.832;23.918;2023-07-31T13:22:41;3.05;;;1.70;;
40591;SDS011;26301;42.832;23.918;2023-07-31T13:25:07;2.67;;;1.60;;
40591;SDS011;26301;42.832;23.918;2023-07-31T13:27:35;3.13;;;1.60;;
40591;SDS011;26301;42.832;23.918;2023-07-31T13:30:01;2.28;;;1.60;;
40591;SDS011;26301;42.832;23.918;2023-07-31T13:32:29;1.67;;;1.42;;
40591;SDS011;26301;42.832;23.918;2023-07-31T13:34:55;5.28;;;1.80;;
40591;SDS011;26301;42.832;23.918;2023-07-31T13:37:21;1.80;;;1.50;;
40591;SDS011;26301;42.832;23.918;2023-07-31T13:39:47;2.92;;;1.60;;
40591;SDS011;26301;42.832;23.918;2023-07-31T13:42:13;2.72;;;1.48;;
40591;SDS011;26301;42.832;23.918;2023-07-31T13:44:40;3.67;;;1.73;;
40591;SDS011;26301;42.832;23.918;2023-07-31T13:47:08;5.70;;;1.60;;
40591;SDS011;26301;42.832;23.918;2023-07-31T13:49:35;2.10;;;1.55;;
40591;SDS011;26301;42.832;23.918;2023-07-31T13:52:03;2.30;;;1.50;;
40591;SDS011;26301;42.832;23.918;2023-07-31T13:54:30;1.85;;;1.42;;
40591;SDS011;26301;42.832;23.918;2023-07-31T13:56:56;3.05;;;1.63;;
40591;SDS011;26301;42.832;23.918;2023-07-31T13:59:23;2.88;;;1.48;;
40591;SDS011;26301;42.832;23.918;2023-07-31T14:01:49;3.17;;;1.45;;
40591;SDS011;26301;42.832;23.918;2023-07-31T14:04:16;2.17;;;1.33;;
40591;SDS011;26301;42.832;23.918;2023-07-31T14:06:43;4.45;;;1.55;;
40591;SDS011;26301;42.832;23.918;2023-07-31T14:09:09;1.98;;;1.42;;
40591;SDS011;26301;42.832;23.918;2023-07-31T14:11:35;1.67;;;1.15;;
40591;SDS011;26301;42.832;23.918;2023-07-31T14:14:02;2.38;;;1.40;;
40591;SDS011;26301;42.832;23.918;2023-07-31T14:16:28;2.88;;;1.30;;
40591;SDS011;26301;42.832;23.918;2023-07-31T14:18:54;2.38;;;1.58;;
40591;SDS011;26301;42.832;23.918;2023-07-31T14:21:21;1.50;;;1.30;;
40591;SDS011;26301;42.832;23.918;2023-07-31T14:23:47;3.15;;;1.60;;
40591;SDS011;26301;42.832;23.918;2023-07-31T14:26:13;1.63;;;1.40;;
40591;SDS011;26301;42.832;23.918;2023-07-31T14:28:39;2.13;;;1.60;;
40591;SDS011;26301;42.832;23.918;2023-07-31T14:31:07;2.58;;;1.45;;
40591;SDS011;26301;42.832;23.918;2023-07-31T14:33:37;2.92;;;1.42;;
40591;SDS011;26301;42.832;23.918;2023-07-31T14:36:03;2.65;;;2.08;;
40591;SDS011;26301;42.832;23.918;2023-07-31T14:38:30;2.50;;;1.80;;
40591;SDS011;26301;42.832;23.918;2023-07-31T14:40:57;2.47;;;1.92;;
40591;SDS011;26301;42.832;23.918;2023-07-31T14:43:23;3.10;;;2.20;;
40591;SDS011;26301;42.832;23.918;2023-07-31T14:45:49;3.17;;;2.10;;